Login
Access
Login with your mtb-forum.it nickname and password.


You do not have an account? Sign up here for free

LvdK

Last training unit 15/04/2014
5
Followers
35 944 Km
itineraries
277 943 m
of total vertical gain
1284
hours of riding
28.06 Km/h
average speed
130
average HR


15/04/2014 Show to everybody Allenamento Libero 62.74 Km 463 m 02:21:47 26.55 Km\h Noah
14/04/2014 Show to everybody Allenamento Libero 64.29 Km 352 m 02:05:06 30.83 Km\h Noah
12/04/2014 Show to everybody Allenamento Libero 61.75 Km 317 m 02:12:59 27.86 Km\h Noah
11/04/2014 Show to everybody Allenamento Libero 72.2 Km 358 m 02:11:46 32.88 Km\h Noah
10/04/2014 Show to everybody Allenamento Libero 63.6 Km 551 m 02:03:13 30.97 Km\h Noah
03/04/2014 Show to everybody Allenamento Libero 66.22 Km 473 m 02:21:54 28 Km\h Noah
02/04/2014 Show to everybody Allenamento Libero 56.14 Km 573 m 01:57:52 28.58 Km\h Noah
01/04/2014 Show to everybody Allenamento Libero 72.28 Km 371 m 02:15:50 31.93 Km\h Noah
31/03/2014 Show to everybody Allenamento Libero 72.82 Km 366 m 02:11:12 33.3 Km\h Noah
29/03/2014 Show to everybody Allenamento Libero 72.55 Km 367 m 02:11:20 33.15 Km\h Noah
28/03/2014 Show to everybody Allenamento Libero 72.27 Km 382 m 02:15:47 31.93 Km\h Noah
23/03/2014 Show to everybody Allenamento Libero 73.25 Km 383 m 02:15:49 32.36 Km\h Noah
22/03/2014 Show to everybody Allenamento Libero 73.27 Km 381 m 02:15:03 32.55 Km\h Noah
21/03/2014 Show to everybody Allenamento Libero 78.09 Km 400 m 02:19:48 33.51 Km\h Noah
20/03/2014 Show to everybody Allenamento Libero 66.79 Km 538 m 02:10:38 30.68 Km\h Noah
19/03/2014 Show to everybody Allenamento Libero 51.52 Km 916 m 02:04:02 24.92 Km\h Noah
16/03/2014 Show to everybody Allenamento Libero 85.36 Km 427 m 02:37:19 32.56 Km\h Noah
15/03/2014 Show to everybody Allenamento Libero 57.87 Km 410 m 02:00:54 28.72 Km\h Noah
14/03/2014 Show to everybody Allenamento Libero 62.53 Km 376 m 02:02:20 30.67 Km\h Noah
09/03/2014 Show to everybody Allenamento Libero 80.72 Km 836 m 02:59:16 27.02 Km\h Noah
08/03/2014 Show to everybody Allenamento Libero 68.02 Km 362 m 02:28:01 27.57 Km\h Noah
06/03/2014 Show to everybody Allenamento Libero 45.22 Km 285 m 01:39:30 27.27 Km\h Noah
05/03/2014 Show to everybody Allenamento Libero 60.99 Km 333 m 01:49:56 33.29 Km\h Noah
04/03/2014 Show to everybody Allenamento Libero 73.14 Km 708 m 02:30:10 29.23 Km\h Noah
03/03/2014 Show to everybody Allenamento Libero 66.83 Km 538 m 02:21:13 28.39 Km\h Noah
02/03/2014 Show to everybody Allenamento Libero 55.29 Km 220 m 01:49:18 30.35 Km\h Noah
01/03/2014 Show to everybody Allenamento Libero 69.32 Km 452 m 02:32:40 27.24 Km\h Noah
24/02/2014 Show to everybody Allenamento Libero 38.43 Km 690 m 01:35:23 24.18 Km\h Noah
23/02/2014 Show to everybody Allenamento Libero 52.91 Km 231 m 01:41:39 31.23 Km\h Noah
17/02/2014 Show to everybody Allenamento Libero 66.2 Km 480 m 02:20:05 28.36 Km\h Noah
16/02/2014 Show to everybody Allenamento Libero 56.31 Km 432 m 01:55:42 29.2 Km\h Noah
15/02/2014 Show to everybody Allenamento Libero 75.1 Km 351 m 02:32:41 29.51 Km\h Noah
10/02/2014 Show to everybody Allenamento Libero 68.75 Km 580 m 02:22:43 28.91 Km\h Noah
09/02/2014 Show to everybody Allenamento Libero 57.84 Km 312 m 01:59:04 29.15 Km\h Noah
08/02/2014 Show to everybody Allenamento Libero 75.12 Km 616 m 02:38:22 28.46 Km\h Noah
07/02/2014 Show to everybody Allenamento Libero 66.41 Km 436 m 02:22:53 27.89 Km\h Noah
03/02/2014 Show to everybody Allenamento Libero 66.42 Km 384 m 02:15:34 29.4 Km\h Noah
02/02/2014 Show to everybody Allenamento Libero 53.03 Km 245 m 01:39:37 31.94 Km\h Noah
30/01/2014 Show to everybody Allenamento Libero 54.62 Km 382 m 01:54:52 28.53 Km\h Noah
27/01/2014 Show to everybody Allenamento Libero 61.58 Km 312 m 02:02:35 30.14 Km\h Noah
26/01/2014 Show to everybody Allenamento Libero 71.83 Km 894 m 02:39:03 27.1 Km\h Noah
25/01/2014 Show to everybody Allenamento Libero 80.63 Km 849 m 02:56:56 27.34 Km\h Noah
18/01/2014 Show to everybody Allenamento Libero 68.44 Km 376 m 02:11:40 31.19 Km\h Noah
17/01/2014 Show to everybody Allenamento Libero 53.17 Km 699 m 02:11:37 24.24 Km\h Noah
11/01/2014 Show to everybody Allenamento Libero 61.08 Km 289 m 01:56:44 31.39 Km\h Noah
10/01/2014 Show to everybody Allenamento Libero 67.61 Km 821 m 02:37:45 25.72 Km\h Noah
06/01/2014 Show to everybody Allenamento Libero 62.46 Km 474 m 02:15:12 27.72 Km\h Noah
05/01/2014 Show to everybody Allenamento Libero 42.68 Km 673 m 01:45:54 24.18 Km\h Noah
04/01/2014 Show to everybody Allenamento Libero 55.88 Km 414 m 01:18:38 42.64 Km\h Noah
30/12/2013 Show to everybody Allenamento Libero 64.59 Km 314 m 02:02:13 31.71 Km\h Noah
28/12/2013 Show to everybody Allenamento Libero 47.19 Km 317 m 01:35:35 29.62 Km\h Noah
27/12/2013 Show to everybody Allenamento Libero 62.82 Km 303 m 01:56:01 32.49 Km\h Noah
25/12/2013 Show to everybody Allenamento Libero 58.15 Km 310 m 01:54:38 30.43 Km\h Noah
25/12/2013 Show to everybody Allenamento Libero 58.15 Km 310 m 01:54:38 30.43 Km\h Noah
25/12/2013 Show to everybody Allenamento Libero 58.15 Km 310 m 01:54:38 30.43 Km\h Noah
14/12/2013 Show to everybody Allenamento Libero 67.57 Km 376 m 02:01:28 33.38 Km\h Noah
13/12/2013 Show to everybody Allenamento Libero 61.29 Km 303 m 02:03:08 29.87 Km\h Noah
10/12/2013 Show to everybody Allenamento Libero 61.77 Km 285 m 01:57:15 31.61 Km\h Noah
09/12/2013 Show to everybody Allenamento Libero 57.21 Km 226 m 01:54:00 30.11 Km\h Noah
08/12/2013 Show to everybody Allenamento Libero 67.44 Km 291 m 02:18:34 29.2 Km\h Noah
07/12/2013 Show to everybody Allenamento Libero 75.55 Km 424 m 02:35:21 29.18 Km\h Noah
02/12/2013 Show to everybody Allenamento Libero 53.55 Km 228 m 01:55:52 27.73 Km\h Noah
24/11/2013 Show to everybody Allenamento Libero 53.6 Km 368 m 01:54:00 28.21 Km\h Noah
23/11/2013 Show to everybody Allenamento Libero 64.19 Km 365 m 01:53:58 33.8 Km\h Noah
17/11/2013 Show to everybody Allenamento Libero 41.27 Km 628 m 01:37:48 25.32 Km\h Noah
16/11/2013 Show to everybody Allenamento Libero 64.1 Km 341 m 01:53:12 33.98 Km\h Noah
12/11/2013 Show to everybody Allenamento Libero 54.6 Km 357 m 01:46:42 30.7 Km\h Noah
11/11/2013 Show to everybody Allenamento Libero 58.7 Km 367 m 01:56:05 30.34 Km\h Noah
10/11/2013 Show to everybody Allenamento Libero 73.21 Km 661 m 02:38:44 27.67 Km\h Noah
09/11/2013 Show to everybody Allenamento Libero 65.02 Km 302 m 02:01:39 32.07 Km\h Noah
07/11/2013 Show to everybody Allenamento Libero 68.7 Km 364 m 02:21:43 29.09 Km\h Noah
04/11/2013 Show to everybody Allenamento Libero 59.52 Km 383 m 01:53:59 31.33 Km\h Noah
02/11/2013 Show to everybody Allenamento Libero 61.14 Km 288 m 01:47:24 34.16 Km\h Noah
01/11/2013 Show to everybody Allenamento Libero 56.27 Km 276 m 01:58:56 28.39 Km\h Noah
26/10/2013 Show to everybody allenamento 60.71 Km 297 m 01:44:52 34.73 Km\h Noah
21/10/2013 Show to everybody allenamento 64.62 Km 360 m 01:58:57 32.59 Km\h Noah
20/10/2013 Show to everybody allenamento 52.87 Km 633 m 01:59:26 26.56 Km\h Noah
19/10/2013 Show to everybody allenamento 62.15 Km 357 m 01:58:26 31.48 Km\h Noah
14/10/2013 Show to everybody allenamento 64.19 Km 363 m 01:57:12 32.86 Km\h Noah
13/10/2013 Show to everybody allenamento 60.19 Km 236 m 01:53:26 31.84 Km\h Noah
12/10/2013 Show to everybody allenamento 69.81 Km 409 m 02:12:26 31.63 Km\h Noah
05/10/2013 Show to everybody allenamento 58.1 Km 288 m 01:53:17 30.77 Km\h Noah
29/09/2013 Show to everybody allenamento 73.35 Km 338 m 02:09:35 33.96 Km\h Noah
28/09/2013 Show to everybody allenamento 60.88 Km 301 m 01:53:04 32.3 Km\h Noah
27/09/2013 Show to everybody allenamento 72.06 Km 813 m 02:31:26 28.55 Km\h Noah
23/09/2013 Show to everybody allenamento 67.55 Km 382 m 02:07:40 31.75 Km\h Noah
07/08/2013 Show to everybody Allenamento Libero 63.48 Km 532 m 02:11:34 28.95 Km\h Noah
06/08/2013 Show to everybody Allenamento Libero 69.64 Km 325 m 02:18:30 30.17 Km\h Noah
05/08/2013 Show to everybody Allenamento Libero 60.14 Km 286 m 02:01:34 29.68 Km\h Noah
04/08/2013 Show to everybody Allenamento Libero 85.19 Km 781 m 03:10:59 26.76 Km\h Noah
03/08/2013 Show to everybody Allenamento Libero 89.27 Km 569 m 03:06:06 28.78 Km\h Noah
02/08/2013 Show to everybody Allenamento Libero 62.37 Km 292 m 01:59:57 31.2 Km\h Noah
28/04/2013 Show to everybody Lungo 134.02 Km 1609 m 04:57:10 27.06 Km\h Noah
27/04/2013 Show to everybody Uscita sabato gruppo SUN 110.64 Km 554 m 03:48:22 29.07 Km\h Noah
13/04/2013 Show to everybody Allenamento Alvano 98.93 Km 460 m 03:05:58 31.92 Km\h Noah
24/03/2013 Show to everybody MF del Golfo 2013 63.57 Km 518 m 01:40:14 38.05 Km\h Noah
20/03/2013 Show to everybody Allenamento Alvano 64.12 Km 1101 m 02:51:32 22.43 Km\h Noah
19/03/2013 Show to everybody Allenamento Alvano 66.63 Km 467 m 02:17:01 29.18 Km\h Noah
18/03/2013 Show to everybody Allenamento Alvano 70.39 Km 442 m 02:30:55 27.98 Km\h Noah
17/03/2013 Show to everybody Allenamento Alvano 2.22 Km 9 m 00:10:15 13.01 Km\h Noah
17/03/2013 Show to everybody MF Acate 2013 83.35 Km 937 m 02:27:55 33.81 Km\h Noah
21/12/2012 Show to everybody Allenamento Alvano 70.25 Km 470 m 02:34:55 27.21 Km\h Noah
20/12/2012 Show to everybody Allenamento Alvano 68 Km 359 m 02:33:37 26.56 Km\h Noah
18/12/2012 Show to everybody Allenamento Alvano 66.37 Km 294 m 02:12:12 30.12 Km\h Noah
17/12/2012 Show to everybody Allenamento Alvano 81.61 Km 825 m 02:59:31 27.28 Km\h Noah
21/10/2012 Show to everybody Allenamento Libero 94.02 Km 887 m 03:27:09 27.23 Km\h Noah
20/10/2012 Show to everybody Allenamento Libero 108.82 Km 944 m 03:43:17 29.24 Km\h Noah
19/10/2012 Show to everybody Allenamento Libero 64.91 Km 414 m 02:07:15 30.61 Km\h Noah
18/10/2012 Show to everybody Allenamento Libero 55.01 Km 544 m 01:57:10 28.17 Km\h Noah
17/10/2012 Show to everybody Allenamento Libero 46.41 Km 339 m 01:37:08 28.67 Km\h Noah
21/07/2012 Show to everybody Uscita gruppo SUN sabato 72.32 Km 317 m 02:04:13 34.93 Km\h Noah
15/07/2012 Show to everybody Allenamento Libero 54.65 Km 243 m 02:01:17 27.03 Km\h Noah
14/07/2012 Show to everybody Uscita Gruppo 123.97 Km 1365 m 04:31:10 27.43 Km\h Noah
13/07/2012 Show to everybody Allenamento Libero 69.65 Km 525 m 02:25:41 28.69 Km\h Noah
12/07/2012 Show to everybody Allenamento Libero 60.85 Km 883 m 02:21:19 25.84 Km\h Noah
11/07/2012 Show to everybody Uscita gruppo 63.77 Km 429 m 02:03:52 30.89 Km\h Noah
09/07/2012 Show to everybody Allenamento Libero 53.61 Km 208 m 01:47:29 29.93 Km\h Noah
30/06/2012 Show to everybody Tabella Alvano 104.92 Km 1058 m 04:05:44 25.62 Km\h Noah
29/06/2012 Show to everybody Tabella Alvano 48.58 Km 210 m 01:30:28 32.22 Km\h Noah
28/06/2012 Show to everybody Tabella Alvano 55.14 Km 504 m 02:04:00 26.68 Km\h Noah
27/06/2012 Show to everybody Tabella Alvano 61.59 Km 451 m 02:00:31 30.66 Km\h Noah
26/06/2012 Show to everybody Tabella Alvano 55.49 Km 585 m 02:10:03 25.6 Km\h Noah
25/06/2012 Show to everybody Tabella Alvano 60.71 Km 276 m 02:02:21 29.77 Km\h Noah
24/06/2012 Show to everybody Tabella Alvano 40.54 Km 375 m 01:23:39 29.08 Km\h Noah
23/06/2012 Show to everybody Tabella Alvano 86.25 Km 749 m 03:21:14 25.72 Km\h Noah
22/06/2012 Show to everybody Tabella alvano 55.28 Km 330 m 02:00:56 27.43 Km\h Noah
21/06/2012 Show to everybody Tabella alvano 52.86 Km 214 m 01:44:04 30.48 Km\h Noah
20/06/2012 Show to everybody Tabella alvano 59.93 Km 630 m 02:17:36 26.13 Km\h Noah
16/06/2012 Show to everybody Tabella alvano 34.33 Km 72 m 01:39:32 20.69 Km\h Noah
14/06/2012 Show to everybody Tabella alvano 85.6 Km 743 m 02:59:27 28.62 Km\h Noah
09/06/2012 Show to everybody Tabella alvano 63.06 Km 339 m 02:05:07 30.24 Km\h Noah
08/06/2012 Show to everybody Tabella alvano 59.32 Km 806 m 02:14:38 26.44 Km\h Noah
07/06/2012 Show to everybody Tabella alvano 53.61 Km 289 m 01:43:30 31.08 Km\h Noah
06/06/2012 Show to everybody Tabella alvano 58.79 Km 549 m 02:23:56 24.51 Km\h Noah
05/06/2012 Show to everybody Tabella alvano 73.63 Km 381 m 02:28:14 29.8 Km\h Noah
03/06/2012 Show to everybody Tabella alvano 94.74 Km 742 m 03:11:19 29.71 Km\h Noah
02/06/2012 Show to everybody Tabella alvano 122.71 Km 1202 m 04:12:50 29.12 Km\h Noah
01/06/2012 Show to everybody Tabella Alvano 70.08 Km 378 m 02:24:45 29.05 Km\h Noah
31/05/2012 Show to everybody Tabella alvano 69.83 Km 691 m 02:30:24 27.86 Km\h Noah
29/05/2012 Show to everybody Tabella alvano 63.23 Km 271 m 02:03:47 30.65 Km\h Noah
28/05/2012 Show to everybody Tabella Alvano 60.27 Km 381 m 01:59:17 30.31 Km\h Noah
27/05/2012 Show to everybody Tabella Alvano 66.49 Km 891 m 02:34:09 25.88 Km\h Noah
26/05/2012 Show to everybody Tabella Alvano 74.31 Km 396 m 02:07:18 35.03 Km\h Noah
25/05/2012 Show to everybody Tabella Alvano 47.29 Km 739 m 02:00:30 23.55 Km\h Noah
23/05/2012 Show to everybody Tabella Alvano 61.69 Km 296 m 02:02:31 30.21 Km\h Noah
20/05/2012 Show to everybody Tabella Alvano 39.49 Km 219 m 01:19:00 29.99 Km\h Noah
19/05/2012 Show to everybody Tabella Alvano 58.56 Km 293 m 01:53:54 30.85 Km\h Noah
18/05/2012 Show to everybody Tabella Alvano 61.73 Km 310 m 02:00:11 30.82 Km\h Noah
16/05/2012 Show to everybody Tabella Alvano 0.13 Km 1 m 00:00:34 14.19 Km\h Noah
15/05/2012 Show to everybody Tabella Alvano 57.83 Km 669 m 02:22:30 24.35 Km\h Noah
13/05/2012 Show to everybody Tabella Alvano 116.18 Km 1424 m 04:14:26 27.4 Km\h Noah
11/05/2012 Show to everybody Tabella Alvano 73.98 Km 609 m 02:29:17 29.73 Km\h Noah
10/05/2012 Show to everybody Tabella Alvano 63.95 Km 918 m 02:30:22 25.52 Km\h Noah
08/05/2012 Show to everybody Tabella Alvano 65.12 Km 295 m 02:17:56 28.33 Km\h Noah
06/05/2012 Show to everybody Tabella Alvano 79.1 Km 1878 m 05:00:48 15.78 Km\h Noah
04/05/2012 Show to everybody Tabella Alvano 62.11 Km 298 m 02:19:29 26.72 Km\h Noah
03/05/2012 Show to everybody Tabella Alvano 56.38 Km 349 m 01:58:31 28.54 Km\h Noah
01/05/2012 Show to everybody Tabella Alvano 65.55 Km 324 m 02:09:32 30.36 Km\h Noah
30/04/2012 Show to everybody Tabella Alvano 38.11 Km 133 m 02:01:16 18.86 Km\h Noah
29/04/2012 Show to everybody Tabella Alvano 31.9 Km 113 m 01:35:42 20 Km\h Noah
28/04/2012 Show to everybody Tabella Alvano 78.08 Km 419 m 02:18:49 33.75 Km\h Noah
27/04/2012 Show to everybody Tabella Alvano 77.92 Km 635 m 02:46:04 28.15 Km\h Noah
26/04/2012 Show to everybody Tabella Alvano 53.15 Km 279 m 02:00:25 26.48 Km\h Noah
25/04/2012 Show to everybody Tabella Alvano 107.95 Km 1359 m 03:48:45 28.31 Km\h Noah
24/04/2012 Show to everybody Tabella Alvano 56.72 Km 276 m 02:02:35 27.76 Km\h Noah
21/04/2012 Show to everybody Tabella Alvano 69.47 Km 459 m 02:17:26 30.33 Km\h Noah
20/04/2012 Show to everybody Tabella Alvano 93.3 Km 1194 m 03:35:40 25.96 Km\h Noah
19/04/2012 Show to everybody Tabella Alvano 30 Km 142 m 01:28:35 20.32 Km\h Noah
18/04/2012 Show to everybody Tabella Alvano 74.48 Km 471 m 02:55:54 25.41 Km\h Noah
17/04/2012 Show to everybody Tabella Alvano 64.24 Km 324 m 02:11:44 29.26 Km\h Noah
15/04/2012 Show to everybody Tabella Alvano 3.96 Km 41 m 00:11:07 21.37 Km\h Noah
15/04/2012 Show to everybody Tabella Alvano 43.9 Km 1145 m 02:46:47 15.79 Km\h Noah
11/04/2012 Show to everybody Tabella Alvano 68.72 Km 473 m 02:37:48 26.13 Km\h Noah
09/04/2012 Show to everybody Tabella Alvano 56.02 Km 152 m 01:50:18 30.47 Km\h Noah
08/04/2012 Show to everybody Tabella Alvano 30.65 Km 132 m 01:28:41 20.74 Km\h Noah
07/04/2012 Show to everybody Tabella Alvano 63.74 Km 359 m 02:05:27 30.48 Km\h Noah
06/04/2012 Show to everybody Tabella Alvano 71.62 Km 994 m 02:48:51 25.45 Km\h Noah
05/04/2012 Show to everybody Tabella Alvano 64.62 Km 281 m 02:14:29 28.83 Km\h Noah
04/04/2012 Show to everybody Tabella Alvano 66.61 Km 164 m 02:09:51 30.78 Km\h Noah
03/04/2012 Show to everybody Tabella Alvano 67.95 Km 515 m 02:32:19 26.77 Km\h Noah
03/04/2012 Show to everybody Tabella Alvano 67.95 Km 515 m 02:32:19 26.77 Km\h Noah
01/04/2012 Show to everybody Tabella Alvano 88.89 Km 788 m 03:04:56 28.84 Km\h Noah
01/04/2012 Show to everybody Tabella Alvano 5.96 Km 9 m 00:13:22 26.74 Km\h Noah
31/03/2012 Show to everybody Tabella Alvano 38.56 Km 165 m 01:20:04 28.9 Km\h Noah
30/03/2012 Show to everybody Tabella Alvano 43.93 Km 206 m 01:28:31 29.78 Km\h Noah
29/03/2012 Show to everybody Tabella Alvano 60.02 Km 726 m 02:30:05 23.99 Km\h Noah
28/03/2012 Show to everybody Tabella Alvano 71.38 Km 375 m 02:22:22 30.08 Km\h Noah
25/03/2012 Show to everybody Tabella Alvano 78.44 Km 282 m 02:51:28 27.45 Km\h Noah
24/03/2012 Show to everybody Tabella Alvano 63.32 Km 1301 m 02:39:57 23.75 Km\h Noah
23/03/2012 Show to everybody Tabella Alvano 74.98 Km 536 m 02:28:03 30.39 Km\h Noah
21/03/2012 Show to everybody Tabella Alvano 60.75 Km 729 m 02:36:14 23.33 Km\h Noah
19/03/2012 Show to everybody Tabella Alvano 48.22 Km 264 m 01:47:46 26.85 Km\h Noah
18/03/2012 Show to everybody Tabella Alvano 113.8 Km 1486 m 03:48:23 29.9 Km\h Noah
16/03/2012 Show to everybody Tabella Alvano 45.61 Km 240 m 01:48:00 25.34 Km\h Noah
15/03/2012 Show to everybody Tabella Alvano 72.14 Km 744 m 02:44:28 26.32 Km\h Noah
14/03/2012 Show to everybody Tabella Alvano 63.25 Km 724 m 02:40:44 23.61 Km\h Noah
13/03/2012 Show to everybody Tabella Alvano 71.68 Km 291 m 02:17:00 31.39 Km\h Noah
06/03/2012 Show to everybody Tabella Alvano 42.25 Km 206 m 01:34:41 26.77 Km\h Noah
04/03/2012 Show to everybody Tabella Alvano 126.19 Km 1496 m 04:15:36 29.62 Km\h Noah
03/03/2012 Show to everybody Tabella alvano 36.56 Km 177 m 01:22:52 26.47 Km\h Noah
02/03/2012 Show to everybody Tabella alvano 45.89 Km 234 m 01:42:25 26.88 Km\h Noah
29/02/2012 Show to everybody Tabella Mapeisport 66.4 Km 913 m 02:29:27 26.66 Km\h Noah
28/02/2012 Show to everybody Tabella Mapeisport 50.6 Km 663 m 02:17:51 22.02 Km\h Noah
26/02/2012 Show to everybody Tabella Mapeisport 77.73 Km 1009 m 03:02:37 25.54 Km\h Noah
25/02/2012 Show to everybody Tabella Mapeisport 99.22 Km 1561 m 03:54:54 25.34 Km\h Noah
24/02/2012 Show to everybody Tabella Mapeisport 72.3 Km 307 m 02:29:28 29.02 Km\h Noah
23/02/2012 Show to everybody Tabella Mapeisport 66.4 Km 333 m 02:27:24 27.03 Km\h Noah
19/02/2012 Show to everybody Tabella Mapeisport 98.27 Km 1040 m 03:32:48 27.71 Km\h Noah
18/02/2012 Show to everybody Tabella Mapeisport 10.43 Km 121 m 00:26:12 23.88 Km\h Noah
18/02/2012 Show to everybody Tabella Mapeisport 79.54 Km 1043 m 03:03:11 26.05 Km\h Noah
17/02/2012 Show to everybody Tabella Mapeisport 43 Km 185 m 01:32:47 27.81 Km\h Noah
16/02/2012 Show to everybody Tabella Mapeisport 69.4 Km 591 m 02:50:39 24.4 Km\h Noah
15/02/2012 Show to everybody Tabella Mapeisport 57.21 Km 794 m 02:29:25 22.97 Km\h Noah
12/02/2012 Show to everybody Tabella Mapeisport 110.93 Km 837 m 04:08:24 26.79 Km\h Noah
10/02/2012 Show to everybody Tabella Mapeisport 65.08 Km 307 m 02:16:53 28.53 Km\h Noah
09/02/2012 Show to everybody Tabella Mapeisport 57 Km 345 m 02:03:05 27.78 Km\h Noah
08/02/2012 Show to everybody Tabella Mapeisport 46.6 Km 204 m 01:46:42 26.2 Km\h Noah
04/02/2012 Show to everybody Tabella Mapeisport 70.28 Km 586 m 02:41:17 26.14 Km\h Noah
03/02/2012 Show to everybody Tabella Mapeisport 49.41 Km 327 m 01:47:56 27.47 Km\h Noah
02/02/2012 Show to everybody Tabella Mapeisport 60.01 Km 291 m 02:08:35 28 Km\h Noah
01/02/2012 Show to everybody Tabella Mapeisport 54.74 Km 373 m 02:15:10 24.3 Km\h Noah
29/01/2012 Show to everybody Tabella Mapeisport 80.27 Km 528 m 03:06:50 25.78 Km\h Noah
28/01/2012 Show to everybody Tabella Mapeisport 61.43 Km 304 m 02:20:39 26.2 Km\h Noah
27/01/2012 Show to everybody Tabella Mapeisport 30.81 Km 275 m 01:20:19 23.01 Km\h Noah
26/01/2012 Show to everybody Tabella Mapeisport 66.84 Km 409 m 02:28:13 27.06 Km\h Noah
25/01/2012 Show to everybody Tabella Mapeisport 32.39 Km 152 m 01:21:40 23.79 Km\h Noah
24/01/2012 Show to everybody Tabella Mapeisport 57.71 Km 373 m 02:11:38 26.3 Km\h Noah
22/01/2012 Show to everybody Tabella Mapeisport 72.38 Km 381 m 02:39:37 27.21 Km\h Noah
21/01/2012 Show to everybody Tabella Mapeisport 56.79 Km 362 m 02:12:46 25.67 Km\h Noah
20/01/2012 Show to everybody Tabella Mapeisport 58.28 Km 368 m 02:11:04 26.68 Km\h Noah
18/01/2012 Show to everybody Tabella Mapeisport 50.94 Km 153 m 01:52:06 27.26 Km\h Noah
14/01/2012 Show to everybody Tabella Mapeisport 56.07 Km 627 m 02:18:16 24.33 Km\h Noah
12/01/2012 Show to everybody Tabella Mapeisport 57.76 Km 462 m 02:03:06 28.16 Km\h Noah
08/01/2012 Show to everybody Tabella Mapeisport 66.15 Km 658 m 02:35:18 25.56 Km\h Noah
07/01/2012 Show to everybody Tabella Mapeisport 74.26 Km 770 m 02:42:55 27.35 Km\h Noah
04/01/2012 Show to everybody Tabella Mapeisport 62.6 Km 317 m 02:08:53 29.14 Km\h Noah
01/01/2012 Show to everybody Tabella Mapeisport 85.91 Km 820 m 03:18:15 26 Km\h Noah
25/12/2011 Show to everybody Tabella Mapeisport 25.69 Km 291 m 01:07:18 22.91 Km\h Noah
24/12/2011 Show to everybody Tabella Mapeisport 56.87 Km 462 m 02:07:41 26.72 Km\h Noah
18/12/2011 Show to everybody Tabella Mapei 42.09 Km 250 m 01:28:43 28.47 Km\h Noah
17/12/2011 Show to everybody Tabella Mapei 58.25 Km 245 m 01:54:32 30.51 Km\h Noah
11/12/2011 Show to everybody Tabella Mapei 47.18 Km 944 m 01:57:23 24.12 Km\h Noah
06/12/2011 Show to everybody Tabella Mapei 54.88 Km 220 m 01:52:44 29.21 Km\h Noah
04/12/2011 Show to everybody Tabella Mapei 69.45 Km 729 m 02:33:18 27.18 Km\h Noah

Show previous years trainings
This user's bikes.
Noah 534 35943.56 Km 277943 m 838:59:59 28.06 Km/h

669 points
Kilometers
2
Vertical gain
1
Rank:22

Watch ranking »

 

Bike name

Delete this bike?

Now you follow this users and you can compare your trainings

If you stop following this users you will not be able to compare your trainings with his


bdc-forum.it | 2012-2019 Training Camp v.1.0.15